createdAt,value
2023-03-28T00:01:54.549Z,-3.78
2023-03-28T00:05:01.393Z,-3.73
2023-03-28T00:08:08.352Z,-3.74
2023-03-28T00:11:20.311Z,-3.79
2023-03-28T00:14:26.806Z,-3.86
2023-03-28T00:17:36.251Z,-3.86
2023-03-28T00:20:44.315Z,-3.88
2023-03-28T00:23:52.517Z,-3.95
2023-03-28T00:27:13.594Z,-3.99
2023-03-28T00:30:20.595Z,-4.08
2023-03-28T00:33:38.060Z,-4.04
2023-03-28T00:36:51.022Z,-4.02
2023-03-28T00:39:59.172Z,-4.04
2023-03-28T00:43:06.305Z,-4.04
2023-03-28T00:46:33.095Z,-4.03
2023-03-28T00:49:42.733Z,-4.10
2023-03-28T00:52:59.881Z,-4.07
2023-03-28T00:56:27.334Z,-3.99
2023-03-28T00:59:38.038Z,-4.01
2023-03-28T01:02:51.594Z,-4.00
2023-03-28T01:06:08.856Z,-4.02
2023-03-28T01:09:34.101Z,-4.07
2023-03-28T01:12:47.484Z,-4.14
2023-03-28T01:15:59.792Z,-4.11
2023-03-28T01:19:08.518Z,-4.06
2023-03-28T01:23:22.778Z,-4.04
2023-03-28T01:26:57.931Z,-3.92
2023-03-28T01:30:45.481Z,-3.79
2023-03-28T01:34:51.852Z,-3.71
2023-03-28T01:38:16.053Z,-3.70
2023-03-28T01:41:40.266Z,-3.58
2023-03-28T01:45:05.218Z,-3.49
2023-03-28T01:48:33.416Z,-3.42
2023-03-28T01:51:58.566Z,-3.39
2023-03-28T01:55:21.516Z,-3.26
2023-03-28T01:58:43.848Z,-3.23
2023-03-28T02:02:09.813Z,-3.22
2023-03-28T02:05:23.896Z,-3.26
2023-03-28T02:08:39.821Z,-3.20
2023-03-28T02:12:34.414Z,-3.37
2023-03-28T02:15:56.686Z,-3.41
2023-03-28T02:19:28.297Z,-3.40
2023-03-28T02:22:59.841Z,-3.52
2023-03-28T02:26:28.935Z,-3.46
2023-03-28T02:29:58.521Z,-3.42
2023-03-28T02:33:41.823Z,-3.39
2023-03-28T02:37:07.175Z,-3.44
2023-03-28T02:40:41.341Z,-3.42
2023-03-28T02:44:24.409Z,-3.33
2023-03-28T02:47:48.111Z,-3.30
2023-03-28T02:51:17.960Z,-3.28
2023-03-28T02:54:39.392Z,-3.23
2023-03-28T02:58:26.668Z,-3.24
2023-03-28T03:01:34.428Z,-3.20
2023-03-28T03:04:44.707Z,-3.20
2023-03-28T03:07:52.463Z,-3.21
2023-03-28T03:11:06.143Z,-3.24
2023-03-28T03:14:17.642Z,-3.25
2023-03-28T03:17:27.400Z,-3.19
2023-03-28T03:20:36.465Z,-3.19
2023-03-28T03:23:43.239Z,-3.14
2023-03-28T03:26:49.249Z,-3.14
2023-03-28T03:29:56.714Z,-3.13
2023-03-28T03:33:16.832Z,-3.09
2023-03-28T03:36:43.273Z,-3.02
2023-03-28T03:39:50.100Z,-3.00
2023-03-28T03:43:04.395Z,-3.02
2023-03-28T03:46:12.391Z,-2.99
2023-03-28T03:49:19.452Z,-2.95
2023-03-28T03:52:28.648Z,-2.85
2023-03-28T03:55:36.525Z,-2.92
2023-03-28T03:58:42.892Z,-2.91
2023-03-28T04:01:49.928Z,-2.80
2023-03-28T04:05:14.575Z,-2.77
2023-03-28T04:08:49.047Z,-2.79
2023-03-28T04:12:04.901Z,-2.84
2023-03-28T04:15:16.412Z,-2.81
2023-03-28T04:18:55.620Z,-2.81
2023-03-28T04:22:04.647Z,-2.78
2023-03-28T04:25:14.425Z,-2.66
2023-03-28T04:28:21.306Z,-2.53
2023-03-28T04:31:56.383Z,-2.56
2023-03-28T04:35:08.185Z,-2.66
2023-03-28T04:38:20.732Z,-2.62
2023-03-28T04:41:49.070Z,-2.55
2023-03-28T04:44:55.076Z,-2.52
2023-03-28T04:48:02.611Z,-2.60
2023-03-28T04:51:27.134Z,-2.60
2023-03-28T04:54:55.785Z,-2.70
2023-03-28T04:58:14.800Z,-2.72
2023-03-28T05:01:22.966Z,-2.72
2023-03-28T05:04:29.025Z,-2.72
2023-03-28T05:07:37.729Z,-2.62
2023-03-28T05:10:47.380Z,-2.71
2023-03-28T05:14:08.977Z,-2.62
2023-03-28T05:17:22.023Z,-2.55
2023-03-28T05:21:03.045Z,-2.52
2023-03-28T05:24:10.513Z,-2.54
2023-03-28T05:27:17.715Z,-2.60
2023-03-28T05:30:26.850Z,-2.50
2023-03-28T05:33:36.169Z,-2.45
2023-03-28T05:36:43.412Z,-2.43
2023-03-28T05:40:00.171Z,-2.26
2023-03-28T05:43:06.717Z,-2.08
2023-03-28T05:46:18.374Z,-2.07
2023-03-28T05:49:29.260Z,-2.13
2023-03-28T05:52:36.102Z,-2.03
2023-03-28T05:55:45.133Z,-2.03
2023-03-28T05:58:51.951Z,-2.14
2023-03-28T06:02:03.739Z,-2.13
2023-03-28T06:05:11.947Z,-2.19
2023-03-28T06:08:18.520Z,-2.17
2023-03-28T06:11:25.529Z,-2.00
2023-03-28T06:14:51.765Z,-1.97
2023-03-28T06:18:10.873Z,-1.98
2023-03-28T06:21:23.074Z,-2.10
2023-03-28T06:24:29.993Z,-2.22
2023-03-28T06:27:36.595Z,-2.17
2023-03-28T06:30:43.627Z,-2.08
2023-03-28T06:33:52.292Z,-1.56
2023-03-28T06:37:02.101Z,-1.65
2023-03-28T06:40:25.273Z,-1.56
2023-03-28T06:43:35.420Z,-1.73
2023-03-28T06:46:53.775Z,-2.06
2023-03-28T06:50:07.787Z,-2.81
2023-03-28T06:53:32.927Z,-3.33
2023-03-28T06:56:46.216Z,-3.50
2023-03-28T06:59:52.776Z,-3.43
2023-03-28T07:03:06.092Z,-3.40
2023-03-28T07:06:15.654Z,-3.33
2023-03-28T07:09:23.876Z,-3.39
2023-03-28T07:12:36.257Z,-3.08
2023-03-28T07:15:49.449Z,-2.81
2023-03-28T07:18:55.714Z,-2.83
2023-03-28T07:22:27.635Z,-2.96
2023-03-28T07:25:33.619Z,-2.93
2023-03-28T07:28:41.327Z,-2.98
2023-03-28T07:31:53.481Z,-3.07
2023-03-28T07:35:00.392Z,-2.89
2023-03-28T07:38:21.336Z,-2.66
2023-03-28T07:41:31.121Z,-2.52
2023-03-28T07:44:46.862Z,-1.98
2023-03-28T07:47:55.199Z,-0.86
2023-03-28T07:51:02.456Z,-0.56
2023-03-28T07:54:18.048Z,-0.50
2023-03-28T07:57:25.982Z,-0.58
2023-03-28T08:00:51.488Z,-0.74
2023-03-28T08:04:19.754Z,-1.28
2023-03-28T08:07:42.840Z,-1.22
2023-03-28T08:10:53.406Z,-1.32
2023-03-28T08:14:00.296Z,-1.56
2023-03-28T08:17:10.089Z,-1.47
2023-03-28T08:20:17.419Z,-1.35
2023-03-28T08:23:57.269Z,-1.69
2023-03-28T08:27:39.097Z,-1.83
2023-03-28T08:30:51.459Z,-1.94
2023-03-28T08:33:59.890Z,-1.75
2023-03-28T08:37:15.636Z,-1.83
2023-03-28T08:40:32.483Z,-2.00
2023-03-28T08:44:17.289Z,-1.71
2023-03-28T08:47:35.562Z,-1.37
2023-03-28T08:50:49.531Z,-0.93
2023-03-28T08:54:17.076Z,-0.46
2023-03-28T08:57:30.870Z,-0.61
2023-03-28T09:00:49.612Z,-0.75
2023-03-28T09:03:56.281Z,-0.69
2023-03-28T09:07:28.517Z,-0.07
2023-03-28T09:10:48.149Z,-0.21
2023-03-28T09:14:27.056Z,-0.34
2023-03-28T09:17:58.433Z,-0.60
2023-03-28T09:21:19.993Z,-0.50
2023-03-28T09:24:51.109Z,0.39
2023-03-28T09:28:16.168Z,0.35
2023-03-28T09:31:37.905Z,-0.17
2023-03-28T09:34:53.679Z,-0.46
2023-03-28T09:38:16.335Z,0.87
2023-03-28T09:41:32.428Z,1.62
2023-03-28T09:45:30.866Z,1.28
2023-03-28T09:48:43.369Z,0.98
2023-03-28T09:52:00.131Z,0.32
2023-03-28T09:55:31.172Z,0.59
2023-03-28T09:58:58.338Z,2.38
2023-03-28T10:02:33.170Z,3.60
2023-03-28T10:05:45.471Z,4.72
2023-03-28T10:09:18.908Z,5.44
2023-03-28T10:12:43.992Z,4.33
2023-03-28T10:15:52.381Z,4.06
2023-03-28T10:19:40.220Z,2.44
2023-03-28T10:22:59.216Z,2.11
2023-03-28T10:26:25.069Z,1.71
2023-03-28T10:29:32.333Z,2.28
2023-03-28T10:32:38.643Z,2.08
2023-03-28T10:36:13.026Z,2.06
2023-03-28T10:39:29.132Z,2.37
2023-03-28T10:43:01.274Z,1.88
2023-03-28T10:46:24.093Z,1.58
2023-03-28T10:49:58.851Z,0.48
2023-03-28T10:53:29.379Z,0.56
2023-03-28T10:57:08.293Z,0.35
2023-03-28T11:00:53.295Z,1.47
2023-03-28T11:04:40.210Z,2.15
2023-03-28T11:08:01.842Z,3.82
2023-03-28T11:11:58.029Z,4.19
2023-03-28T11:15:16.321Z,2.95
2023-03-28T11:19:12.195Z,1.43
2023-03-28T11:23:03.040Z,0.55
2023-03-28T11:26:42.139Z,-0.55
2023-03-28T11:30:21.805Z,-1.05
2023-03-28T11:34:07.318Z,-1.45
2023-03-28T11:37:24.215Z,-1.32
2023-03-28T11:40:52.611Z,-1.17
2023-03-28T11:44:21.642Z,-0.66
2023-03-28T11:47:41.363Z,-0.55
2023-03-28T11:51:22.541Z,0.08
2023-03-28T11:54:49.245Z,1.06
2023-03-28T11:58:20.546Z,1.37
2023-03-28T12:01:42.429Z,0.90
2023-03-28T12:05:00.881Z,0.49
2023-03-28T12:08:20.787Z,-0.77
2023-03-28T12:11:49.312Z,-1.44
2023-03-28T12:15:06.300Z,-2.25
2023-03-28T12:18:36.173Z,-1.87
2023-03-28T12:21:56.274Z,-1.60
2023-03-28T12:25:37.728Z,-1.63
2023-03-28T12:28:54.546Z,-1.29
2023-03-28T12:32:36.401Z,-1.05
2023-03-28T12:35:57.842Z,-0.87
2023-03-28T12:39:35.109Z,-1.53
2023-03-28T12:43:09.253Z,-1.44
2023-03-28T12:46:24.400Z,-0.79
2023-03-28T12:49:46.550Z,-0.98
2023-03-28T12:52:55.185Z,-0.87
2023-03-28T12:56:25.879Z,-0.29
2023-03-28T13:00:17.721Z,-0.87
2023-03-28T13:04:08.499Z,-0.95
2023-03-28T13:07:53.944Z,-0.94
2023-03-28T13:11:16.191Z,-0.73
2023-03-28T13:14:38.532Z,-1.10
2023-03-28T13:17:51.979Z,-0.89
2023-03-28T13:20:59.937Z,-1.06
2023-03-28T13:24:34.893Z,-0.81
2023-03-28T13:27:41.413Z,-0.74
2023-03-28T13:30:50.271Z,-0.97
2023-03-28T13:34:03.066Z,-1.29
2023-03-28T13:37:24.756Z,-0.90
2023-03-28T13:40:51.605Z,-0.79
2023-03-28T13:44:09.647Z,-1.07
2023-03-28T13:47:35.918Z,-0.97
2023-03-28T13:50:48.787Z,-1.16
2023-03-28T13:53:54.891Z,-1.31
2023-03-28T13:57:08.717Z,-1.12
2023-03-28T14:00:21.711Z,-1.19
2023-03-28T14:03:29.401Z,-1.33
2023-03-28T14:06:45.437Z,-1.93
2023-03-28T14:09:53.914Z,-2.68
2023-03-28T14:13:06.572Z,-2.91
2023-03-28T14:16:15.968Z,-2.71
2023-03-28T14:19:33.367Z,-2.35
2023-03-28T14:22:56.999Z,-2.02
2023-03-28T14:26:20.079Z,-1.84
2023-03-28T14:29:29.450Z,-1.75
2023-03-28T14:32:41.880Z,-1.76
2023-03-28T14:36:05.069Z,-1.85
2023-03-28T14:39:21.968Z,-1.69
2023-03-28T14:42:33.362Z,-1.83
2023-03-28T14:45:48.130Z,-1.84
2023-03-28T14:48:57.819Z,-2.12
2023-03-28T14:52:07.222Z,-2.22
2023-03-28T14:55:23.987Z,-2.06
2023-03-28T14:58:31.829Z,-1.77
2023-03-28T15:01:42.599Z,-1.60
2023-03-28T15:04:53.402Z,-1.70
2023-03-28T15:08:05.328Z,-1.71
2023-03-28T15:11:25.932Z,-1.76
2023-03-28T15:14:45.696Z,-1.66
2023-03-28T15:17:58.790Z,-1.70
2023-03-28T15:21:11.014Z,-1.71
2023-03-28T15:24:22.425Z,-1.58
2023-03-28T15:27:36.715Z,-1.91
2023-03-28T15:30:48.617Z,-1.66
2023-03-28T15:33:57.960Z,-1.55
2023-03-28T15:37:09.282Z,-1.70
2023-03-28T15:40:29.274Z,-1.71
2023-03-28T15:43:59.067Z,-1.84
2023-03-28T15:47:13.422Z,-1.84
2023-03-28T15:50:33.471Z,-1.86
2023-03-28T15:53:40.323Z,-1.63
2023-03-28T15:56:51.703Z,-1.51
2023-03-28T16:00:02.149Z,-1.48
2023-03-28T16:03:37.355Z,-1.27
2023-03-28T16:06:47.643Z,-1.54
2023-03-28T16:09:53.812Z,-2.35
2023-03-28T16:13:00.596Z,-2.81
2023-03-28T16:16:38.889Z,-3.12
2023-03-28T16:19:59.401Z,-3.19
2023-03-28T16:23:07.273Z,-3.26
2023-03-28T16:26:15.207Z,-3.17
2023-03-28T16:29:21.291Z,-3.28
2023-03-28T16:32:31.039Z,-3.21
2023-03-28T16:35:37.693Z,-2.94
2023-03-28T16:38:45.362Z,-2.92
2023-03-28T16:41:51.583Z,-3.00
2023-03-28T16:44:59.251Z,-2.94
2023-03-28T16:48:08.647Z,-3.00
2023-03-28T16:51:15.604Z,-3.00
2023-03-28T16:54:21.721Z,-3.06
2023-03-28T16:57:31.954Z,-3.06
2023-03-28T17:00:38.695Z,-3.12
2023-03-28T17:03:49.442Z,-3.13
2023-03-28T17:06:56.090Z,-3.30
2023-03-28T17:10:02.999Z,-3.13
2023-03-28T17:13:09.727Z,-3.06
2023-03-28T17:16:17.564Z,-3.08
2023-03-28T17:19:26.864Z,-2.95
2023-03-28T17:22:33.770Z,-2.81
2023-03-28T17:25:53.844Z,-2.84
2023-03-28T17:29:01.613Z,-2.87
2023-03-28T17:32:09.034Z,-2.78
2023-03-28T17:35:19.573Z,-2.85
2023-03-28T17:38:26.003Z,-2.78
2023-03-28T17:41:33.040Z,-2.75
2023-03-28T17:44:39.204Z,-2.75
2023-03-28T17:47:46.201Z,-2.64
2023-03-28T17:50:58.475Z,-2.72
2023-03-28T17:54:07.170Z,-2.65
2023-03-28T17:57:13.321Z,-2.66
2023-03-28T18:00:22.601Z,-2.65
2023-03-28T18:03:28.963Z,-2.65
2023-03-28T18:06:51.751Z,-2.68
2023-03-28T18:09:57.986Z,-2.72
2023-03-28T18:13:04.967Z,-2.65
2023-03-28T18:16:15.264Z,-2.62
2023-03-28T18:19:22.454Z,-2.76
2023-03-28T18:22:31.148Z,-2.88
2023-03-28T18:25:39.163Z,-2.92
2023-03-28T18:28:45.567Z,-2.91
2023-03-28T18:31:52.582Z,-3.03
2023-03-28T18:34:58.787Z,-3.00
2023-03-28T18:38:08.560Z,-3.05
2023-03-28T18:41:22.346Z,-3.19
2023-03-28T18:44:36.193Z,-3.12
2023-03-28T18:47:43.085Z,-3.07
2023-03-28T18:50:56.341Z,-3.21
2023-03-28T18:54:05.165Z,-3.29
2023-03-28T18:57:12.156Z,-3.23
2023-03-28T19:00:28.320Z,-3.24
2023-03-28T19:03:40.603Z,-3.27
2023-03-28T19:06:46.861Z,-3.27
2023-03-28T19:09:56.870Z,-3.28
2023-03-28T19:13:23.322Z,-3.35
2023-03-28T19:16:52.272Z,-3.34
2023-03-28T19:20:05.116Z,-3.43
2023-03-28T19:23:12.199Z,-3.52
2023-03-28T19:26:22.587Z,-3.51
2023-03-28T19:29:30.431Z,-3.41
2023-03-28T19:32:36.685Z,-3.50
2023-03-28T19:35:44.440Z,-3.50
2023-03-28T19:38:50.664Z,-3.47
2023-03-28T19:42:00.618Z,-3.47
2023-03-28T19:45:07.671Z,-3.53
2023-03-28T19:48:18.068Z,-3.58
2023-03-28T19:51:24.178Z,-3.49
2023-03-28T19:54:31.135Z,-3.49
2023-03-28T19:57:39.855Z,-3.48
2023-03-28T20:00:46.761Z,-3.52
2023-03-28T20:03:53.507Z,-3.57
2023-03-28T20:07:01.859Z,-3.59
2023-03-28T20:10:10.559Z,-3.62
2023-03-28T20:13:20.933Z,-3.72
2023-03-28T20:16:41.532Z,-3.83
2023-03-28T20:20:01.251Z,-3.83
2023-03-28T20:23:12.277Z,-3.85
2023-03-28T20:26:28.696Z,-3.83
2023-03-28T20:29:43.926Z,-3.88
2023-03-28T20:32:57.180Z,-3.91
2023-03-28T20:36:09.391Z,-3.89
2023-03-28T20:39:19.416Z,-3.92
2023-03-28T20:42:31.008Z,-3.89
2023-03-28T20:45:46.841Z,-3.92
2023-03-28T20:48:57.682Z,-3.92
2023-03-28T20:52:08.518Z,-4.03
2023-03-28T20:55:25.565Z,-3.99
2023-03-28T20:58:41.041Z,-4.12
2023-03-28T21:01:52.357Z,-4.04
2023-03-28T21:05:05.339Z,-4.05
2023-03-28T21:08:13.702Z,-4.05
2023-03-28T21:11:26.589Z,-4.12
2023-03-28T21:14:32.620Z,-4.17
2023-03-28T21:17:46.375Z,-4.13
2023-03-28T21:20:53.846Z,-4.16
2023-03-28T21:24:01.279Z,-4.14
2023-03-28T21:27:07.756Z,-4.20
2023-03-28T21:30:15.356Z,-4.17
2023-03-28T21:33:30.382Z,-4.18
2023-03-28T21:36:37.211Z,-4.22
2023-03-28T21:39:43.574Z,-4.25
2023-03-28T21:43:03.358Z,-4.28
2023-03-28T21:46:11.709Z,-4.27
2023-03-28T21:49:21.432Z,-4.33
2023-03-28T21:52:27.494Z,-4.37
2023-03-28T21:55:34.954Z,-4.37
2023-03-28T21:58:41.230Z,-4.38
2023-03-28T22:01:57.391Z,-4.41
2023-03-28T22:05:29.364Z,-4.43
2023-03-28T22:08:36.967Z,-4.41
2023-03-28T22:11:42.996Z,-4.45
2023-03-28T22:14:49.800Z,-4.46
2023-03-28T22:17:58.459Z,-4.43
2023-03-28T22:21:09.318Z,-4.42
2023-03-28T22:24:15.378Z,-4.41
2023-03-28T22:27:22.831Z,-4.45
2023-03-28T22:30:28.783Z,-4.46
2023-03-28T22:33:36.061Z,-4.43
2023-03-28T22:36:44.719Z,-4.46
2023-03-28T22:39:51.955Z,-4.45
2023-03-28T22:42:59.577Z,-4.49
2023-03-28T22:46:07.377Z,-4.42
2023-03-28T22:49:22.278Z,-4.42
2023-03-28T22:52:32.110Z,-4.42
2023-03-28T22:55:38.564Z,-4.49
2023-03-28T22:58:45.399Z,-4.51
2023-03-28T23:01:51.718Z,-4.52
2023-03-28T23:04:58.971Z,-4.58
2023-03-28T23:08:08.565Z,-4.62
2023-03-28T23:11:15.363Z,-4.70
2023-03-28T23:14:22.394Z,-4.76
2023-03-28T23:17:29.723Z,-4.79
2023-03-28T23:20:35.989Z,-4.86
2023-03-28T23:23:46.869Z,-4.86
2023-03-28T23:26:52.932Z,-4.83
2023-03-28T23:29:59.834Z,-4.81
2023-03-28T23:33:05.900Z,-4.85
2023-03-28T23:36:14.385Z,-4.89
2023-03-28T23:39:23.168Z,-4.95
2023-03-28T23:42:30.201Z,-5.00
2023-03-28T23:45:36.279Z,-5.03
2023-03-28T23:48:46.364Z,-5.05
2023-03-28T23:51:56.513Z,-5.01
2023-03-28T23:55:08.196Z,-4.97
2023-03-28T23:58:14.142Z,-4.95
